Time;durP1;ratioP1;P1;durP2;ratioP2;P2;SDS_P1;SDS_P2;PMS_P1;PMS_P2;Temp;Humidity;BMP_temperature;BMP_pressure;BME280_temperature;BME280_humidity;BME280_pressure;Samples;Min_cycle;Max_cycle;Signal;HPM_P1;HPM_P2
2020/12/19 00:00:25;;;;;;;25.65;14.63;;;6.10;96.00;;;;;;4994531;28;20054;-74
2020/12/19 00:02:52;;;;;;;19.13;11.77;;;6.10;96.80;;;;;;5010289;28;20111;-74
2020/12/19 00:05:19;;;;;;;27.27;14.65;;;6.10;96.50;;;;;;5004659;28;20068;-74
2020/12/19 00:07:46;;;;;;;26.58;14.55;;;6.10;96.50;;;;;;5006986;28;20479;-74
2020/12/19 00:10:12;;;;;;;20.40;11.95;;;6.10;96.30;;;;;;5001844;28;20042;-74
2020/12/19 00:12:38;;;;;;;21.67;12.27;;;6.10;96.80;;;;;;5026224;28;20489;-74
2020/12/19 00:15:05;;;;;;;22.77;12.73;;;6.00;96.60;;;;;;5011302;28;20058;-74
2020/12/19 00:17:31;;;;;;;20.45;12.45;;;6.00;96.40;;;;;;5007332;28;20467;-74
2020/12/19 00:19:57;;;;;;;21.90;11.55;;;6.00;96.60;;;;;;4998273;28;20583;-74
2020/12/19 00:22:24;;;;;;;19.70;11.63;;;6.00;96.70;;;;;;5001900;28;20112;-74
2020/12/19 00:24:50;;;;;;;16.10;9.90;;;6.00;96.90;;;;;;5003063;28;20049;-74
2020/12/19 00:27:16;;;;;;;28.10;13.80;;;6.10;96.60;;;;;;5009089;28;20125;-74
2020/12/19 00:29:43;;;;;;;20.42;11.77;;;6.10;96.70;;;;;;5002559;28;20049;-74
2020/12/19 00:32:10;;;;;;;17.88;10.70;;;6.20;97.00;;;;;;5010313;28;20090;-74
2020/12/19 00:34:53;;;;;;;16.38;9.55;;;6.20;97.20;;;;;;5002761;28;20156;-74
2020/12/19 00:37:20;;;;;;;17.65;9.68;;;6.30;96.80;;;;;;5002674;28;20042;-74
2020/12/19 00:39:46;;;;;;;18.75;9.85;;;6.30;96.80;;;;;;5003284;28;20125;-74
2020/12/19 00:42:12;;;;;;;20.50;11.52;;;6.40;96.60;;;;;;5001906;28;20042;-73
2020/12/19 00:44:39;;;;;;;17.25;10.32;;;6.40;96.70;;;;;;5011069;28;20092;-74
2020/12/19 00:47:05;;;;;;;17.58;10.60;;;6.50;96.90;;;;;;5003636;28;20077;-74
2020/12/19 00:49:31;;;;;;;18.70;10.93;;;6.60;96.80;;;;;;5010042;28;20168;-74
2020/12/19 00:51:58;;;;;;;19.17;11.88;;;6.70;96.10;;;;;;5006063;28;20053;-74
2020/12/19 00:54:25;;;;;;;23.45;14.45;;;6.60;96.40;;;;;;5008366;28;20081;-74
2020/12/19 00:56:52;;;;;;;21.65;14.27;;;6.60;97.10;;;;;;4996956;28;20085;-74
2020/12/19 00:59:19;;;;;;;34.15;20.02;;;6.70;97.10;;;;;;4999804;28;20047;-74
2020/12/19 01:01:45;;;;;;;25.23;15.38;;;6.70;97.20;;;;;;4996870;28;20122;-74
2020/12/19 01:04:12;;;;;;;17.55;11.88;;;6.70;97.10;;;;;;5000656;28;20045;-74
2020/12/19 01:06:38;;;;;;;20.48;11.63;;;6.80;97.00;;;;;;5019306;28;20049;-73
2020/12/19 01:09:05;;;;;;;19.15;10.27;;;6.90;96.80;;;;;;4996509;28;20078;-74
2020/12/19 01:11:35;;;;;;;18.17;9.85;;;6.90;96.60;;;;;;5000041;28;20084;-74
2020/12/19 01:14:03;;;;;;;18.08;10.02;;;6.90;96.60;;;;;;5002093;28;20104;-74
2020/12/19 01:16:30;;;;;;;18.52;9.50;;;6.80;96.00;;;;;;4997557;28;20498;-74
2020/12/19 01:18:58;;;;;;;16.20;9.60;;;6.70;96.40;;;;;;5003696;28;20076;-74
2020/12/19 01:21:26;;;;;;;17.48;9.93;;;6.70;96.70;;;;;;4992473;28;20081;-74
2020/12/19 01:23:53;;;;;;;18.23;10.48;;;6.70;96.80;;;;;;5001272;28;20332;-74
2020/12/19 01:26:20;;;;;;;17.30;9.13;;;6.70;97.00;;;;;;5022236;28;20043;-74
2020/12/19 01:28:47;;;;;;;15.38;8.73;;;6.80;97.60;;;;;;5005252;28;20096;-74
2020/12/19 01:31:16;;;;;;;17.08;8.88;;;6.80;96.90;;;;;;5004327;28;20116;-74
2020/12/19 01:33:43;;;;;;;15.98;9.02;;;6.80;96.80;;;;;;5006641;28;20089;-74
2020/12/19 01:36:16;;;;;;;16.60;9.20;;;6.80;96.90;;;;;;4998709;28;20125;-74
2020/12/19 01:38:43;;;;;;;16.58;9.38;;;6.70;96.80;;;;;;5000424;28;20136;-74
2020/12/19 01:41:09;;;;;;;15.85;8.57;;;6.60;97.20;;;;;;5008795;28;20088;-74
2020/12/19 01:44:03;;;;;;;14.75;7.93;;;6.60;97.40;;;;;;5009491;28;20586;-74
2020/12/19 01:46:32;;;;;;;;;;;6.70;97.10;;;;;;5007433;28;20125;-74
2020/12/19 01:49:01;;;;;;;14.18;7.80;;;6.90;97.00;;;;;;5008648;28;19979;-74
2020/12/19 01:51:28;;;;;;;12.95;6.43;;;7.10;97.40;;;;;;5010075;28;20131;-74
2020/12/19 01:53:56;;;;;;;12.75;7.03;;;7.40;96.30;;;;;;5009142;28;20048;-74
2020/12/19 01:56:44;;;;;;;11.35;7.32;;;7.40;96.00;;;;;;5006715;28;20046;-73
2020/12/19 01:59:11;;;;;;;10.43;6.55;;;7.40;96.00;;;;;;5008151;28;20108;-74
2020/12/19 02:01:48;;;;;;;11.88;7.20;;;7.50;95.80;;;;;;5012555;28;20081;-74
2020/12/19 02:04:16;;;;;;;12.00;7.50;;;7.50;95.70;;;;;;5009246;28;20064;-74
2020/12/19 02:06:46;;;;;;;15.88;9.32;;;7.40;95.70;;;;;;5008002;28;20065;-74
2020/12/19 02:09:13;;;;;;;11.85;8.10;;;7.30;95.80;;;;;;5026451;28;20101;-74
2020/12/19 02:11:43;;;;;;;13.48;8.02;;;7.30;95.80;;;;;;5013093;28;20066;-73
2020/12/19 02:14:11;;;;;;;17.17;7.90;;;7.20;96.00;;;;;;5010218;28;20077;-73
2020/12/19 02:16:38;;;;;;;12.77;8.63;;;7.20;96.10;;;;;;5006621;28;20156;-74
2020/12/19 02:19:14;;;;;;;12.75;7.82;;;7.20;96.00;;;;;;5011631;28;20073;-74
2020/12/19 02:21:41;;;;;;;13.73;7.40;;;7.40;96.00;;;;;;5009032;28;20156;-74
2020/12/19 02:24:08;;;;;;;14.77;6.90;;;7.50;96.00;;;;;;5006863;28;20088;-74
2020/12/19 02:26:34;;;;;;;11.77;7.57;;;7.70;95.90;;;;;;5016118;28;20042;-74
2020/12/19 02:29:01;;;;;;;12.30;6.72;;;7.80;95.30;;;;;;5013656;28;20117;-74
2020/12/19 02:31:27;;;;;;;12.95;7.05;;;7.90;95.00;;;;;;5030884;28;20124;-74
2020/12/19 02:33:53;;;;;;;12.00;7.07;;;8.00;94.90;;;;;;5020488;28;20474;-74
2020/12/19 02:36:20;;;;;;;12.18;6.80;;;7.90;95.10;;;;;;5014729;28;20085;-73
2020/12/19 02:38:47;;;;;;;13.32;7.30;;;7.90;95.10;;;;;;5020897;28;20083;-74
2020/12/19 02:41:13;;;;;;;13.05;7.32;;;7.80;95.00;;;;;;5018676;28;20046;-74
2020/12/19 02:43:40;;;;;;;13.05;7.53;;;7.70;95.10;;;;;;5015956;28;20058;-74
2020/12/19 02:46:06;;;;;;;11.40;7.28;;;7.70;94.90;;;;;;5015297;28;20069;-74
2020/12/19 02:48:32;;;;;;;11.35;7.38;;;7.70;95.00;;;;;;5025925;28;20073;-73
2020/12/19 02:50:59;;;;;;;14.07;7.90;;;7.60;95.20;;;;;;5015188;28;20070;-73
2020/12/19 02:53:25;;;;;;;14.23;6.90;;;7.60;95.10;;;;;;5014414;28;20080;-74
2020/12/19 02:55:51;;;;;;;14.15;7.65;;;7.60;95.40;;;;;;5013027;28;20169;-73
2020/12/19 02:58:18;;;;;;;14.57;7.78;;;7.50;95.10;;;;;;5015350;28;20435;-73
2020/12/19 03:00:44;;;;;;;12.75;7.93;;;7.40;95.20;;;;;;5014202;28;20064;-73
2020/12/19 03:03:10;;;;;;;14.25;8.20;;;7.30;95.30;;;;;;5005540;28;20129;-73
2020/12/19 03:05:37;;;;;;;17.17;7.63;;;7.30;95.30;;;;;;5015975;28;20084;-73
2020/12/19 03:08:03;;;;;;;15.93;9.02;;;7.30;95.40;;;;;;5015631;28;20207;-74
2020/12/19 03:10:29;;;;;;;13.20;7.70;;;7.30;95.20;;;;;;5024525;28;20042;-74
2020/12/19 03:12:56;;;;;;;12.52;7.72;;;7.30;95.20;;;;;;5015857;28;20149;-73
2020/12/19 03:15:22;;;;;;;15.60;8.60;;;7.40;95.30;;;;;;5017884;28;20533;-73
2020/12/19 03:17:49;;;;;;;18.58;8.63;;;7.30;94.90;;;;;;5027786;28;20231;-75
2020/12/19 03:20:16;;;;;;;14.07;8.27;;;7.40;94.80;;;;;;5015724;28;20042;-74
2020/12/19 03:22:42;;;;;;;14.57;8.55;;;7.30;94.90;;;;;;5013770;28;20763;-75
2020/12/19 03:25:08;;;;;;;14.40;8.13;;;7.20;95.00;;;;;;5020857;28;20080;-75
2020/12/19 03:27:43;;;;;;;14.55;8.25;;;7.20;95.20;;;;;;5015466;28;20050;-75
2020/12/19 03:30:10;;;;;;;14.15;8.52;;;7.10;95.20;;;;;;5017422;28;20050;-75
2020/12/19 03:32:36;;;;;;;14.13;8.82;;;7.10;95.30;;;;;;5015063;28;20060;-75
2020/12/19 03:35:03;;;;;;;13.27;8.20;;;7.10;95.30;;;;;;5025552;28;20128;-75
2020/12/19 03:37:33;;;;;;;14.32;8.65;;;7.00;95.50;;;;;;5013983;28;20461;-75
2020/12/19 03:40:01;;;;;;;15.23;7.97;;;7.00;95.20;;;;;;5016634;28;20038;-74
2020/12/19 03:42:27;;;;;;;13.48;7.90;;;7.00;95.30;;;;;;5010593;28;20568;-74
2020/12/19 03:44:53;;;;;;;14.05;8.20;;;7.00;95.30;;;;;;5014113;28;20098;-74
2020/12/19 03:47:20;;;;;;;14.68;7.95;;;7.00;95.20;;;;;;5014811;28;20037;-75
2020/12/19 03:49:46;;;;;;;13.00;8.10;;;6.90;95.20;;;;;;5018024;28;20137;-74
2020/12/19 03:52:13;;;;;;;13.38;7.35;;;6.90;95.30;;;;;;5012838;28;20140;-74
2020/12/19 03:54:39;;;;;;;11.60;7.20;;;6.90;95.50;;;;;;5014970;28;20133;-74
2020/12/19 03:57:05;;;;;;;13.05;7.10;;;6.90;95.30;;;;;;5014528;28;20081;-75
2020/12/19 03:59:32;;;;;;;11.43;6.40;;;6.80;95.40;;;;;;5012570;28;20075;-74
2020/12/19 04:01:58;;;;;;;15.60;6.93;;;6.90;95.50;;;;;;5023857;28;20081;-75
2020/12/19 04:04:24;;;;;;;11.38;6.80;;;6.90;95.30;;;;;;5011780;28;20077;-75
2020/12/19 04:06:59;;;;;;;12.25;6.75;;;6.90;95.20;;;;;;5011847;28;20144;-75
2020/12/19 04:09:25;;;;;;;10.60;6.18;;;6.90;95.20;;;;;;5010201;28;20137;-75
2020/12/19 04:11:51;;;;;;;13.93;6.82;;;7.00;95.20;;;;;;5015239;28;20061;-74
2020/12/19 04:14:18;;;;;;;14.10;6.88;;;7.00;95.10;;;;;;5011223;28;20383;-75
2020/12/19 04:16:48;;;;;;;9.65;5.68;;;7.00;95.00;;;;;;5010291;28;20133;-75
2020/12/19 04:19:15;;;;;;;9.60;5.63;;;7.00;95.00;;;;;;5016652;28;20049;-75
2020/12/19 04:21:42;;;;;;;8.82;5.18;;;7.10;94.90;;;;;;5011251;28;20077;-75
2020/12/19 04:24:08;;;;;;;8.10;5.18;;;7.30;94.50;;;;;;5017977;28;20084;-75
2020/12/19 04:26:34;;;;;;;10.18;5.57;;;7.20;94.60;;;;;;5024041;28;20197;-75
2020/12/19 04:29:01;;;;;;;11.88;5.82;;;7.10;94.60;;;;;;5020558;28;20431;-75
2020/12/19 04:31:27;;;;;;;10.35;5.85;;;7.10;94.60;;;;;;5013103;28;20073;-74
2020/12/19 04:33:53;;;;;;;13.38;6.53;;;7.00;94.60;;;;;;5011113;28;20092;-75
2020/12/19 04:36:20;;;;;;;10.85;6.07;;;7.00;94.60;;;;;;5023914;28;20077;-74
2020/12/19 04:38:46;;;;;;;10.75;5.72;;;6.90;94.80;;;;;;5011394;28;20108;-72
2020/12/19 04:41:13;;;;;;;9.20;4.78;;;6.90;94.90;;;;;;5011244;28;20068;-75
2020/12/19 04:43:40;;;;;;;9.38;5.03;;;7.00;94.70;;;;;;5008885;28;20069;-73
2020/12/19 04:46:06;;;;;;;8.55;5.15;;;7.20;94.60;;;;;;5016960;28;20426;-73
2020/12/19 04:48:33;;;;;;;10.27;5.20;;;7.20;94.50;;;;;;5017544;28;20125;-73
2020/12/19 04:51:00;;;;;;;12.65;5.07;;;7.30;94.40;;;;;;5020395;28;20148;-73
2020/12/19 04:53:26;;;;;;;9.13;5.20;;;7.50;94.20;;;;;;5025533;28;20461;-73
2020/12/19 04:55:52;;;;;;;7.70;4.28;;;7.60;94.00;;;;;;5011039;28;20046;-73
2020/12/19 04:58:19;;;;;;;11.43;5.47;;;7.70;93.60;;;;;;5012769;28;20087;-74
2020/12/19 05:00:49;;;;;;;9.48;5.13;;;7.80;93.60;;;;;;5014700;28;20420;-73
2020/12/19 05:03:16;;;;;;;11.32;5.38;;;7.70;93.60;;;;;;5009978;28;20433;-73
2020/12/19 05:05:45;;;;;;;10.27;5.20;;;7.70;93.40;;;;;;5009317;28;20125;-73
2020/12/19 05:08:12;;;;;;;10.38;5.97;;;7.70;93.50;;;;;;5013670;28;20069;-73
2020/12/19 05:10:39;;;;;;;10.15;5.00;;;7.60;93.50;;;;;;5014261;28;20053;-73
2020/12/19 05:13:06;;;;;;;10.35;4.82;;;7.50;93.70;;;;;;5017247;28;20116;-74
2020/12/19 05:15:32;;;;;;;8.05;4.93;;;7.50;93.70;;;;;;5008747;28;20081;-73
2020/12/19 05:18:00;;;;;;;9.98;5.22;;;7.40;93.80;;;;;;5011774;28;20078;-73
2020/12/19 05:20:29;;;;;;;15.57;8.85;;;7.30;94.00;;;;;;5010851;28;20109;-73
2020/12/19 05:22:57;;;;;;;16.17;9.27;;;7.30;94.10;;;;;;5011045;28;20049;-73
2020/12/19 05:25:25;;;;;;;12.70;5.45;;;7.30;94.10;;;;;;5018702;28;20108;-73
2020/12/19 05:27:52;;;;;;;10.85;5.07;;;7.30;94.00;;;;;;5010643;28;20137;-73
2020/12/19 05:30:20;;;;;;;8.48;4.90;;;7.40;94.00;;;;;;5009710;28;20503;-73
2020/12/19 05:32:52;;;;;;;9.32;4.80;;;7.40;94.00;;;;;;5008964;28;20046;-73
2020/12/19 05:35:22;;;;;;;9.50;4.57;;;7.40;94.00;;;;;;5010787;28;20131;-73
2020/12/19 05:38:03;;;;;;;5.90;3.92;;;7.40;93.90;;;;;;5009838;28;20139;-66
2020/12/19 05:40:30;;;;;;;8.52;3.85;;;7.50;94.00;;;;;;5025685;28;20088;-66
2020/12/19 05:42:57;;;;;;;7.68;4.07;;;7.60;93.70;;;;;;5007348;28;20069;-66
2020/12/19 05:45:25;;;;;;;8.95;4.25;;;7.80;93.20;;;;;;5009561;28;20531;-66
2020/12/19 05:47:52;;;;;;;8.45;3.90;;;7.90;93.00;;;;;;5008885;28;20144;-66
2020/12/19 05:50:20;;;;;;;11.15;4.43;;;7.80;93.10;;;;;;5008547;28;20479;-66
2020/12/19 05:52:46;;;;;;;10.25;3.88;;;7.80;93.10;;;;;;5007740;28;20162;-66
2020/12/19 05:55:15;;;;;;;7.70;4.00;;;7.70;93.20;;;;;;5022406;28;20121;-66
2020/12/19 05:57:42;;;;;;;7.75;4.05;;;7.80;93.10;;;;;;5006891;28;20387;-66
2020/12/19 06:00:12;;;;;;;7.18;3.78;;;7.80;93.20;;;;;;5008414;28;20045;-67
2020/12/19 06:02:39;;;;;;;7.85;3.63;;;7.90;93.10;;;;;;5011478;28;20501;-67
2020/12/19 06:05:08;;;;;;;6.60;3.40;;;8.00;93.00;;;;;;5008548;28;20078;-66
2020/12/19 06:07:40;;;;;;;6.05;3.28;;;8.10;92.80;;;;;;5011957;28;20439;-67
2020/12/19 06:10:09;;;;;;;7.55;3.08;;;8.20;92.50;;;;;;5023813;28;20124;-66
2020/12/19 06:12:47;;;;;;;6.93;3.38;;;8.20;92.70;;;;;;5007229;28;20145;-67
2020/12/19 06:15:41;;;;;;;5.78;3.03;;;8.20;92.60;;;;;;5009027;28;20053;-66
2020/12/19 06:18:33;;;;;;;;;;;8.30;92.50;;;;;;5017456;28;20132;-66
2020/12/19 06:21:05;;;;;;;7.13;3.30;;;8.20;92.40;;;;;;5000753;28;20008;-67
2020/12/19 06:23:35;;;;;;;4.45;2.55;;;8.10;92.60;;;;;;5013052;28;20061;-66
2020/12/19 06:26:04;;;;;;;4.97;2.60;;;8.10;92.70;;;;;;5018712;28;20049;-68
2020/12/19 06:28:42;;;;;;;7.40;2.50;;;8.20;92.60;;;;;;5011570;28;20081;-67
2020/12/19 06:31:19;;;;;;;8.15;3.00;;;8.30;92.30;;;;;;5016411;28;20082;-66
2020/12/19 06:33:51;;;;;;;5.15;2.50;;;8.40;92.40;;;;;;5008096;28;20081;-66
2020/12/19 06:36:18;;;;;;;6.93;3.85;;;8.50;92.10;;;;;;5013171;28;20060;-66
2020/12/19 06:38:49;;;;;;;6.35;2.42;;;8.60;91.90;;;;;;5024617;28;20057;-66
2020/12/19 06:41:41;;;;;;;5.15;2.03;;;8.70;91.70;;;;;;5010642;28;20117;-66
2020/12/19 06:44:16;;;;;;;4.22;2.15;;;8.80;91.60;;;;;;5019360;28;20111;-66
2020/12/19 06:46:43;;;;;;;4.80;2.50;;;8.80;91.30;;;;;;5008916;28;20442;-66
2020/12/19 06:49:24;;;;;;;7.75;3.05;;;8.70;91.50;;;;;;5020388;28;20133;-66
2020/12/19 06:52:02;;;;;;;6.40;2.50;;;8.50;91.70;;;;;;5008199;28;20076;-66
2020/12/19 06:54:37;;;;;;;4.68;2.42;;;8.40;91.90;;;;;;5008150;28;20096;-67
2020/12/19 06:57:05;;;;;;;7.10;2.92;;;8.30;92.00;;;;;;5005572;28;20146;-67
2020/12/19 06:59:32;;;;;;;4.38;2.50;;;8.20;92.10;;;;;;5007838;28;20077;-67
2020/12/19 07:02:27;;;;;;;5.47;2.47;;;8.30;92.10;;;;;;5018871;28;20085;-66
2020/12/19 07:04:53;;;;;;;4.47;2.65;;;8.20;92.10;;;;;;5008209;28;20124;-67
2020/12/19 07:07:27;;;;;;;6.35;2.78;;;8.20;92.20;;;;;;5016984;28;20138;-67
2020/12/19 07:09:55;;;;;;;6.05;2.30;;;8.10;92.10;;;;;;5014104;28;20038;-66
2020/12/19 07:12:40;;;;;;;4.70;1.90;;;8.10;92.50;;;;;;5005672;28;20097;-66
2020/12/19 07:15:08;;;;;;;;;;;8.10;92.10;;;;;;5011883;28;20046;-67
2020/12/19 07:17:48;;;;;;;3.97;2.08;;;8.30;91.70;;;;;;5012384;28;19932;-66
2020/12/19 07:20:23;;;;;;;4.90;2.45;;;8.30;91.50;;;;;;5011480;28;20085;-66
2020/12/19 07:22:50;;;;;;;10.57;3.55;;;8.30;91.40;;;;;;5023596;28;20076;-66
2020/12/19 07:25:16;;;;;;;5.38;2.63;;;8.30;91.40;;;;;;5019045;28;20137;-66
2020/12/19 07:27:43;;;;;;;4.95;2.88;;;8.30;91.40;;;;;;5022608;28;20118;-67
2020/12/19 07:30:09;;;;;;;6.70;2.38;;;8.20;91.70;;;;;;5014798;28;20124;-66
2020/12/19 07:32:35;;;;;;;6.45;2.80;;;8.30;91.50;;;;;;5013010;28;20073;-66
2020/12/19 07:35:03;;;;;;;6.55;2.88;;;8.30;91.30;;;;;;5012155;28;20173;-67
2020/12/19 07:37:32;;;;;;;5.20;2.00;;;8.30;91.50;;;;;;5012537;28;20450;-67
2020/12/19 07:40:07;;;;;;;4.20;2.42;;;8.40;91.20;;;;;;5010845;28;20061;-67
2020/12/19 07:42:33;;;;;;;4.68;2.40;;;8.40;91.20;;;;;;5017983;28;20045;-67
2020/12/19 07:45:00;;;;;;;5.30;1.80;;;8.30;91.50;;;;;;5011082;28;20245;-66
2020/12/19 07:47:26;;;;;;;4.97;2.30;;;8.40;91.20;;;;;;5024592;28;20050;-67
2020/12/19 07:49:52;;;;;;;8.50;2.97;;;8.60;90.90;;;;;;5015443;28;20133;-67
2020/12/19 07:52:22;;;;;;;4.97;2.30;;;8.60;90.70;;;;;;5015064;28;20410;-66
2020/12/19 07:54:57;;;;;;;8.15;3.08;;;8.60;90.90;;;;;;5023417;28;20140;-66
2020/12/19 07:57:26;;;;;;;5.63;2.75;;;8.60;90.80;;;;;;5023921;28;20053;-66
2020/12/19 07:59:53;;;;;;;5.95;2.97;;;8.60;90.90;;;;;;5012460;28;20049;-66
2020/12/19 08:02:21;;;;;;;5.10;1.80;;;8.60;90.80;;;;;;5014280;28;20486;-66
2020/12/19 08:04:51;;;;;;;6.38;2.17;;;8.70;90.80;;;;;;5015030;28;20038;-67
2020/12/19 08:07:19;;;;;;;6.18;2.58;;;8.70;90.60;;;;;;5017560;28;20045;-66
2020/12/19 08:09:46;;;;;;;6.32;1.70;;;8.80;90.50;;;;;;5017955;28;20072;-66
2020/12/19 08:12:13;;;;;;;4.15;2.25;;;9.00;90.20;;;;;;5004397;28;20134;-66
2020/12/19 08:14:41;;;;;;;4.63;2.17;;;9.10;90.00;;;;;;4996616;28;20577;-66
2020/12/19 08:17:13;;;;;;;4.78;2.22;;;9.10;90.00;;;;;;4996444;28;20192;-67
2020/12/19 08:19:43;;;;;;;3.63;1.90;;;9.00;90.20;;;;;;5009136;28;20054;-66
2020/12/19 08:22:11;;;;;;;5.90;2.80;;;9.10;90.10;;;;;;5015723;28;20317;-66
2020/12/19 08:24:56;;;;;;;7.43;3.03;;;9.10;90.10;;;;;;5002491;28;20137;-66
2020/12/19 08:27:32;;;;;;;6.95;2.65;;;9.10;90.10;;;;;;5008904;28;20212;-66
2020/12/19 08:30:04;;;;;;;7.22;2.58;;;9.10;90.00;;;;;;5010722;28;20092;-66
2020/12/19 08:32:31;;;;;;;4.47;2.30;;;9.20;89.60;;;;;;5012629;28;20356;-67
2020/12/19 08:34:58;;;;;;;4.05;1.73;;;9.20;89.70;;;;;;5007448;28;20454;-66
2020/12/19 08:37:25;;;;;;;5.22;2.30;;;9.30;90.10;;;;;;5007391;28;20144;-67
2020/12/19 08:40:11;;;;;;;4.63;1.98;;;9.40;89.30;;;;;;5009205;28;20431;-67
2020/12/19 08:42:42;;;;;;;3.65;1.73;;;9.50;88.30;;;;;;4990971;28;20161;-66
2020/12/19 08:45:29;;;;;;;4.47;1.80;;;9.70;87.80;;;;;;5009162;28;20144;-66
2020/12/19 08:47:58;;;;;;;5.20;2.00;;;9.90;87.00;;;;;;5003547;28;20065;-66
2020/12/19 08:50:27;;;;;;;7.05;3.67;;;10.00;86.80;;;;;;5000621;28;20120;-66
2020/12/19 08:53:04;;;;;;;3.67;1.40;;;10.10;86.80;;;;;;5009814;28;20048;-67
2020/12/19 08:55:31;;;;;;;7.65;3.75;;;10.20;86.40;;;;;;5011628;28;20042;-67
2020/12/19 08:57:58;;;;;;;9.05;4.93;;;10.20;85.90;;;;;;5015738;28;20422;-66
2020/12/19 09:00:24;;;;;;;8.68;3.67;;;10.20;86.10;;;;;;5009261;28;20129;-66
2020/12/19 09:02:51;;;;;;;4.40;2.58;;;10.20;85.80;;;;;;5000500;28;20144;-66
2020/12/19 09:05:37;;;;;;;5.35;2.35;;;10.20;85.70;;;;;;5008505;28;20159;-66
2020/12/19 09:08:04;;;;;;;4.07;2.13;;;10.20;85.80;;;;;;5003778;28;20053;-66
2020/12/19 09:10:34;;;;;;;7.07;2.40;;;10.20;85.50;;;;;;5014750;28;20096;-66
2020/12/19 09:13:18;;;;;;;5.20;2.10;;;10.20;85.80;;;;;;5008353;28;20149;-66
2020/12/19 09:15:45;;;;;;;6.53;2.00;;;10.40;85.50;;;;;;5010285;28;20050;-66
2020/12/19 09:18:16;;;;;;;4.18;1.98;;;10.20;86.30;;;;;;5007440;28;20061;-66
2020/12/19 09:20:44;;;;;;;5.22;2.30;;;10.20;86.10;;;;;;4994601;28;20127;-66
2020/12/19 09:23:10;;;;;;;5.00;2.40;;;10.20;86.90;;;;;;5009569;28;20080;-67
2020/12/19 09:25:38;;;;;;;3.08;1.52;;;10.20;86.50;;;;;;5009750;28;20364;-66
2020/12/19 09:28:04;;;;;;;2.97;1.58;;;10.30;85.90;;;;;;5006186;28;20111;-66
2020/12/19 09:30:33;;;;;;;8.95;2.15;;;10.40;85.30;;;;;;5011277;28;20057;-69
2020/12/19 09:33:00;;;;;;;6.93;2.50;;;10.40;84.70;;;;;;5008458;28;20463;-67
2020/12/19 09:35:28;;;;;;;3.75;1.63;;;10.40;85.00;;;;;;5005174;28;20132;-66
2020/12/19 09:37:55;;;;;;;4.25;1.80;;;10.60;84.40;;;;;;4999385;28;20447;-66
2020/12/19 09:40:27;;;;;;;5.18;1.83;;;10.60;84.20;;;;;;5002135;28;20361;-67
2020/12/19 09:42:54;;;;;;;3.15;1.30;;;10.80;83.40;;;;;;4991124;28;20217;-67
2020/12/19 09:45:20;;;;;;;5.78;1.73;;;10.80;82.70;;;;;;5008280;28;20057;-66
2020/12/19 09:47:46;;;;;;;4.18;1.33;;;10.90;82.10;;;;;;5006636;28;20044;-66
2020/12/19 09:50:14;;;;;;;4.38;1.70;;;10.90;82.10;;;;;;5002809;28;20042;-66
2020/12/19 09:52:40;;;;;;;2.47;1.00;;;11.00;81.80;;;;;;5012420;28;20538;-67
2020/12/19 09:55:09;;;;;;;4.90;1.65;;;11.10;80.70;;;;;;5010185;28;20049;-66
2020/12/19 09:57:35;;;;;;;4.25;1.40;;;11.10;80.90;;;;;;5006721;28;20053;-66
2020/12/19 10:00:04;;;;;;;5.15;1.75;;;11.00;81.60;;;;;;5011370;28;20083;-66
2020/12/19 10:02:31;;;;;;;3.08;1.60;;;11.00;80.50;;;;;;5004255;28;20088;-67
2020/12/19 10:04:57;;;;;;;4.55;1.70;;;11.00;80.80;;;;;;5003833;28;20132;-66
2020/12/19 10:07:24;;;;;;;7.45;1.63;;;11.00;80.90;;;;;;5007289;28;20128;-66
2020/12/19 10:09:50;;;;;;;4.13;1.80;;;10.90;81.20;;;;;;5007027;28;20092;-67
2020/12/19 10:12:17;;;;;;;3.45;1.58;;;10.80;81.40;;;;;;5007208;28;20430;-66
2020/12/19 10:14:43;;;;;;;3.53;1.95;;;10.80;81.40;;;;;;5003968;28;20133;-67
2020/12/19 10:17:09;;;;;;;4.47;1.77;;;10.80;81.70;;;;;;5006926;28;20486;-67
2020/12/19 10:19:36;;;;;;;4.78;1.52;;;10.90;81.30;;;;;;5007041;28;20383;-66
2020/12/19 10:22:03;;;;;;;6.72;1.60;;;11.00;80.40;;;;;;5008313;28;20054;-66
2020/12/19 10:24:29;;;;;;;2.97;1.05;;;11.00;80.70;;;;;;5006451;28;20064;-66
2020/12/19 10:26:56;;;;;;;6.50;1.65;;;11.10;80.40;;;;;;5004862;28;20135;-66
2020/12/19 10:29:22;;;;;;;5.15;2.08;;;11.20;79.80;;;;;;5006534;28;20081;-67
2020/12/19 10:31:48;;;;;;;3.40;1.20;;;11.30;80.50;;;;;;5002773;28;20210;-68
2020/12/19 10:34:15;;;;;;;3.75;1.20;;;11.30;79.90;;;;;;5004711;28;20049;-68
2020/12/19 10:36:42;;;;;;;5.75;1.65;;;11.30;80.20;;;;;;5005912;28;20518;-66
2020/12/19 10:39:08;;;;;;;7.57;1.42;;;11.30;80.20;;;;;;4999862;28;20084;-67
2020/12/19 10:41:34;;;;;;;4.13;1.67;;;11.40;79.50;;;;;;5008100;28;20120;-66
2020/12/19 10:44:01;;;;;;;3.45;1.30;;;11.60;79.30;;;;;;5007949;28;20107;-66
2020/12/19 10:46:28;;;;;;;7.38;1.75;;;11.60;78.50;;;;;;5001962;28;20046;-66
2020/12/19 10:48:55;;;;;;;3.28;1.25;;;11.70;78.90;;;;;;5007283;28;20137;-66
2020/12/19 10:51:28;;;;;;;7.05;1.92;;;11.70;78.70;;;;;;5008954;28;20124;-67
2020/12/19 10:53:56;;;;;;;4.18;1.75;;;11.80;77.70;;;;;;5008259;28;20137;-67
2020/12/19 10:56:22;;;;;;;6.20;1.60;;;11.80;77.40;;;;;;5005230;28;20129;-66
2020/12/19 10:58:49;;;;;;;4.28;1.42;;;11.90;77.00;;;;;;5007958;28;20073;-66
2020/12/19 11:01:17;;;;;;;6.25;1.63;;;11.90;76.60;;;;;;5008592;28;20578;-66
2020/12/19 11:03:44;;;;;;;3.95;1.52;;;12.00;75.90;;;;;;5009196;28;20110;-66
2020/12/19 11:06:22;;;;;;;6.10;1.10;;;12.10;76.20;;;;;;5011121;28;20537;-67
2020/12/19 11:08:49;;;;;;;4.18;1.00;;;12.00;76.70;;;;;;5010535;28;20257;-66
2020/12/19 11:11:26;;;;;;;6.15;1.67;;;12.10;75.90;;;;;;5010260;28;20134;-67
2020/12/19 11:13:52;;;;;;;3.13;1.13;;;12.10;75.60;;;;;;5002435;28;20064;-67
2020/12/19 11:16:26;;;;;;;4.63;1.23;;;12.20;75.30;;;;;;5007314;28;20509;-67
2020/12/19 11:18:54;;;;;;;3.08;1.30;;;12.30;74.30;;;;;;5010429;28;20054;-67
2020/12/19 11:21:21;;;;;;;4.55;1.35;;;12.30;74.30;;;;;;5000803;28;20498;-67
2020/12/19 11:23:48;;;;;;;3.95;1.67;;;12.40;74.60;;;;;;5010654;28;20503;-66
2020/12/19 11:26:19;;;;;;;3.53;1.13;;;12.40;74.00;;;;;;5011143;28;20073;-66
2020/12/19 11:28:48;;;;;;;3.58;1.02;;;12.60;73.10;;;;;;5008994;28;20065;-66
2020/12/19 11:31:15;;;;;;;4.38;1.20;;;12.60;72.50;;;;;;5008410;28;20050;-67
2020/12/19 11:33:42;;;;;;;3.78;1.23;;;12.60;73.10;;;;;;5011402;28;20458;-66
2020/12/19 11:36:13;;;;;;;4.32;1.20;;;12.70;73.00;;;;;;5006819;28;20075;-65
2020/12/19 11:38:39;;;;;;;3.75;1.20;;;12.70;72.50;;;;;;5007952;28;20058;-67
2020/12/19 11:41:06;;;;;;;3.10;1.20;;;12.70;73.20;;;;;;5010676;28;20060;-67
2020/12/19 11:43:32;;;;;;;3.83;1.40;;;12.70;73.10;;;;;;5009692;28;20514;-66
2020/12/19 11:45:59;;;;;;;3.90;1.90;;;12.70;74.10;;;;;;5008621;28;20045;-66
2020/12/19 11:48:26;;;;;;;4.78;1.50;;;12.70;73.50;;;;;;5008428;28;20042;-67
2020/12/19 11:50:52;;;;;;;2.53;1.25;;;12.70;73.20;;;;;;5009417;28;20143;-67
2020/12/19 11:53:18;;;;;;;7.38;1.30;;;12.70;73.60;;;;;;5011429;28;20045;-67
2020/12/19 11:55:45;;;;;;;6.90;1.55;;;12.80;73.00;;;;;;5010390;28;20136;-67
2020/12/19 11:58:11;;;;;;;5.97;1.40;;;12.70;73.00;;;;;;5011379;28;20475;-67
2020/12/19 12:00:38;;;;;;;5.20;1.33;;;12.70;72.80;;;;;;5011572;28;20490;-67
2020/12/19 12:03:07;;;;;;;2.72;1.33;;;12.60;73.60;;;;;;5010589;28;20129;-67
2020/12/19 12:05:36;;;;;;;7.82;1.90;;;12.70;73.20;;;;;;5011196;28;20137;-67
2020/12/19 12:08:03;;;;;;;5.80;1.38;;;12.80;73.70;;;;;;5011379;28;20176;-67
2020/12/19 12:10:29;;;;;;;3.47;1.27;;;12.80;73.10;;;;;;5010878;28;20080;-67
2020/12/19 12:12:55;;;;;;;4.78;1.50;;;12.80;73.30;;;;;;5012217;28;20443;-66
2020/12/19 12:15:22;;;;;;;9.13;1.73;;;12.80;73.90;;;;;;5011827;28;20159;-67
2020/12/19 12:17:48;;;;;;;2.78;1.00;;;12.90;72.30;;;;;;5011874;28;20053;-67
2020/12/19 12:20:16;;;;;;;3.58;1.10;;;13.10;72.20;;;;;;5011376;28;20478;-67
2020/12/19 12:22:43;;;;;;;3.92;1.40;;;13.10;71.80;;;;;;5011523;28;20112;-67
2020/12/19 12:25:10;;;;;;;4.28;1.38;;;13.20;72.60;;;;;;5010902;28;20474;-67
2020/12/19 12:27:36;;;;;;;6.40;1.30;;;13.10;72.40;;;;;;5010864;28;20056;-67
2020/12/19 12:30:04;;;;;;;6.28;1.80;;;13.10;72.60;;;;;;5010903;28;20101;-67
2020/12/19 12:32:30;;;;;;;5.20;1.50;;;13.20;72.60;;;;;;5011382;28;20069;-67
2020/12/19 12:34:57;;;;;;;4.65;1.70;;;13.30;71.60;;;;;;5010893;28;20455;-67
2020/12/19 12:37:23;;;;;;;4.65;1.40;;;13.30;72.70;;;;;;5010785;28;20588;-66
2020/12/19 12:39:49;;;;;;;5.55;1.85;;;13.20;71.50;;;;;;5011590;28;20053;-67
2020/12/19 12:42:23;;;;;;;5.28;1.85;;;13.10;72.90;;;;;;5010841;28;20076;-67
2020/12/19 12:44:50;;;;;;;8.65;1.88;;;12.90;73.00;;;;;;5010587;28;20525;-66
2020/12/19 12:47:18;;;;;;;5.32;2.05;;;12.80;73.60;;;;;;5010501;28;20495;-67
2020/12/19 12:49:44;;;;;;;3.28;1.33;;;12.80;73.40;;;;;;5011276;28;20081;-67
2020/12/19 12:52:12;;;;;;;4.22;1.60;;;12.80;72.80;;;;;;5010893;28;20050;-66
2020/12/19 12:54:38;;;;;;;4.70;1.73;;;12.70;73.50;;;;;;5010905;28;20081;-67
2020/12/19 12:57:04;;;;;;;6.35;1.95;;;12.80;74.20;;;;;;5010452;28;20453;-67